Time;durP1;ratioP1;P1;durP2;ratioP2;P2;SDS_P1;SDS_P2;PMS_P1;PMS_P2;Temp;Humidity;BMP_temperature;BMP_pressure;BME280_temperature;BME280_humidity;BME280_pressure;Samples;Min_cycle;Max_cycle;Signal;HPM_P1;HPM_P2
2021/12/11 11:08:22;;;;;;;0.80;0.20;;;;;;;;;;5094465;27;1328373;-65
2021/12/11 11:10:55;;;;;;;0.20;0.10;;;;;;;;;;5120739;27;20110;-70
2021/12/11 11:13:22;;;;;;;0.00;0.00;;;;;;;;;;5116694;28;20126;-59
2021/12/11 11:15:48;;;;;;;1.08;0.50;;;;;;;;;;5117853;27;20410;-61
2021/12/11 11:18:15;;;;;;;0.85;0.10;;;;;;;;;;5118688;28;20024;-61
2021/12/11 11:20:45;;;;;;;0.17;0.10;;;;;;;;;;5117376;27;20093;-61
2021/12/11 11:23:11;;;;;;;0.00;0.00;;;;;;;;;;5119072;28;20080;-61
2021/12/11 11:25:40;;;;;;;0.00;0.00;;;;;;;;;;5119951;28;20031;-61
2021/12/11 11:28:08;;;;;;;1.35;0.10;;;;;;;;;;5119204;27;20053;-61
2021/12/11 11:30:38;;;;;;;0.45;0.13;;;;;;;;;;5118501;28;20481;-61
2021/12/11 11:33:05;;;;;;;1.05;0.22;;;;;;;;;;5117719;28;20024;-62
2021/12/11 11:35:32;;;;;;;0.10;0.10;;;;;;;;;;5119763;28;20027;-61
2021/12/11 11:38:00;;;;;;;0.40;0.23;;;;;;;;;;5129121;27;20595;-60
2021/12/11 11:40:28;;;;;;;0.30;0.30;;;;;;;;;;5114805;27;20027;-60
2021/12/11 11:42:54;;;;;;;;;;;;;;;;;;5114373;28;20363;-60
2021/12/11 11:45:20;;;;;;;0.10;0.10;;;;;;;;;;5114369;28;19952;-60
2021/12/11 11:47:46;;;;;;;0.35;0.15;;;;;;;;;;5111161;28;20050;-59
2021/12/11 11:50:14;;;;;;;0.00;0.00;;;;;;;;;;5112379;28;20099;-61
2021/12/11 11:52:41;;;;;;;0.52;0.20;;;;;;;;;;5116157;28;20474;-62
2021/12/11 11:55:09;;;;;;;0.40;0.10;;;;;;;;;;5115636;28;20019;-61
2021/12/11 11:57:37;;;;;;;0.32;0.13;;;;;;;;;;5115438;28;20043;-65
2021/12/11 12:00:08;;;;;;;0.73;0.40;;;;;;;;;;5115921;27;20513;-64
2021/12/11 12:02:34;;;;;;;0.10;0.10;;;;;;;;;;5115513;28;20032;-66
2021/12/11 12:05:01;;;;;;;0.20;0.20;;;;;;;;;;5116090;28;20020;-67
2021/12/11 12:07:29;;;;;;;0.93;0.35;;;;;;;;;;5113940;28;20590;-68
2021/12/11 12:10:00;;;;;;;0.32;0.20;;;;;;;;;;5114325;27;20502;-69
2021/12/11 12:12:27;;;;;;;0.30;0.22;;;;;;;;;;5112094;28;20470;-66
2021/12/11 12:14:54;;;;;;;0.13;0.13;;;;;;;;;;5110263;28;20505;-68
2021/12/11 12:17:22;;;;;;;0.30;0.10;;;;;;;;;;5108935;27;20549;-68
2021/12/11 12:19:48;;;;;;;0.37;0.20;;;;;;;;;;5097505;28;20479;-67
2021/12/11 12:22:15;;;;;;;0.73;0.30;;;;;;;;;;5098578;28;20280;-66
2021/12/11 12:24:42;;;;;;;0.75;0.20;;;;;;;;;;5099919;28;20022;-66
2021/12/11 12:27:12;;;;;;;0.15;0.10;;;;;;;;;;5099657;28;20037;-64
2021/12/11 12:29:38;;;;;;;0.00;0.00;;;;;;;;;;5095622;28;20039;-66
2021/12/11 12:32:15;;;;;;;0.38;0.20;;;;;;;;;;5097599;28;20043;-65
2021/12/11 12:34:44;;;;;;;0.13;0.10;;;;;;;;;;5101040;28;20433;-67
2021/12/11 12:37:09;;;;;;;;;;;;;;;;;;5100990;28;20484;-68
2021/12/11 12:39:38;;;;;;;0.20;0.10;;;;;;;;;;5100085;28;19955;-67
2021/12/11 12:42:27;;;;;;;0.70;0.40;;;;;;;;;;5099772;28;20547;-65
2021/12/11 12:45:08;;;;;;;0.98;0.55;;;;;;;;;;5097423;28;20047;-65
2021/12/11 12:47:37;;;;;;;0.82;0.40;;;;;;;;;;5094975;28;20506;-64
2021/12/11 12:50:06;;;;;;;1.55;0.60;;;;;;;;;;5097637;28;20475;-68
2021/12/11 12:52:34;;;;;;;0.22;0.20;;;;;;;;;;5099519;28;20114;-65
2021/12/11 12:55:03;;;;;;;0.57;0.30;;;;;;;;;;5099370;28;20020;-65
2021/12/11 12:57:32;;;;;;;3.72;1.35;;;;;;;;;;5098637;28;20078;-64
2021/12/11 13:00:09;;;;;;;6.25;1.45;;;;;;;;;;5097289;28;20065;-64
2021/12/11 13:02:37;;;;;;;0.60;0.40;;;;;;;;;;5093714;28;20030;-64
2021/12/11 13:05:10;;;;;;;2.57;1.20;;;;;;;;;;5095792;28;20028;-65
2021/12/11 13:07:36;;;;;;;0.35;0.20;;;;;;;;;;5094076;28;20058;-64
2021/12/11 13:10:06;;;;;;;0.40;0.30;;;;;;;;;;5097688;28;20391;-66
2021/12/11 13:12:34;;;;;;;0.30;0.20;;;;;;;;;;5096159;28;20020;-66
2021/12/11 13:15:00;;;;;;;;;;;;;;;;;;5103218;28;20032;-66
2021/12/11 13:17:30;;;;;;;0.52;0.40;;;;;;;;;;5093784;28;19915;-66
2021/12/11 13:20:02;;;;;;;0.30;0.20;;;;;;;;;;5096163;28;20035;-66
2021/12/11 13:22:30;;;;;;;0.13;0.03;;;;;;;;;;5096854;28;20032;-67
2021/12/11 13:24:58;;;;;;;0.40;0.20;;;;;;;;;;5096322;28;20023;-67
2021/12/11 13:27:26;;;;;;;0.20;0.10;;;;;;;;;;5097287;28;20044;-66
2021/12/11 13:29:53;;;;;;;0.40;0.40;;;;;;;;;;5094088;28;20020;-67
2021/12/11 13:32:25;;;;;;;0.65;0.47;;;;;;;;;;5108191;28;20039;-66
2021/12/11 13:34:57;;;;;;;0.65;0.17;;;;;;;;;;5095665;28;20486;-61
2021/12/11 13:37:26;;;;;;;0.63;0.38;;;;;;;;;;5097563;28;20063;-63
2021/12/11 13:39:54;;;;;;;0.43;0.28;;;;;;;;;;5097289;28;20105;-62
2021/12/11 13:42:22;;;;;;;2.30;0.40;;;;;;;;;;5097820;28;20452;-62
2021/12/11 13:44:49;;;;;;;0.75;0.38;;;;;;;;;;5094899;28;20024;-62
2021/12/11 13:47:18;;;;;;;0.25;0.20;;;;;;;;;;5085667;28;20119;-62
2021/12/11 13:49:44;;;;;;;3.15;0.90;;;;;;;;;;5089371;28;20066;-62
2021/12/11 13:52:11;;;;;;;2.65;0.80;;;;;;;;;;5104597;28;20024;-61
2021/12/11 13:54:38;;;;;;;0.85;0.50;;;;;;;;;;5089015;28;20093;-61
2021/12/11 13:57:09;;;;;;;0.77;0.40;;;;;;;;;;5103510;28;20111;-61
2021/12/11 13:59:36;;;;;;;1.30;0.28;;;;;;;;;;5097920;28;20020;-67
2021/12/11 14:02:02;;;;;;;0.20;0.10;;;;;;;;;;5108129;28;20062;-64
2021/12/11 14:04:29;;;;;;;1.65;0.52;;;;;;;;;;5100476;28;20046;-63
2021/12/11 14:07:35;;;;;;;0.55;0.40;;;;;;;;;;5098011;28;20127;-63
2021/12/11 14:09:56;;;;;;;0.38;0.30;;;;;;;;;;5094953;28;20366;-63
2021/12/11 14:12:24;;;;;;;0.88;0.47;;;;;;;;;;5098087;28;20024;-63
2021/12/11 14:14:51;;;;;;;0.93;0.43;;;;;;;;;;5100342;28;20435;-63
2021/12/11 14:17:17;;;;;;;0.98;0.40;;;;;;;;;;5098999;28;20050;-64
2021/12/11 14:19:44;;;;;;;0.90;0.10;;;;;;;;;;5100905;28;20417;-63
2021/12/11 14:22:11;;;;;;;0.88;0.30;;;;;;;;;;5100533;28;20088;-64
2021/12/11 14:24:37;;;;;;;0.75;0.40;;;;;;;;;;5100525;28;20023;-63
2021/12/11 14:27:04;;;;;;;1.77;0.88;;;;;;;;;;5098754;28;20032;-63
2021/12/11 14:29:31;;;;;;;3.10;0.30;;;;;;;;;;5098293;28;20081;-63
2021/12/11 14:31:57;;;;;;;2.53;0.90;;;;;;;;;;5101022;28;20343;-63
2021/12/11 14:34:24;;;;;;;1.73;0.75;;;;;;;;;;5100048;28;20095;-63
2021/12/11 14:36:52;;;;;;;1.75;0.80;;;;;;;;;;5100784;28;20028;-64
2021/12/11 14:39:24;;;;;;;3.00;0.88;;;;;;;;;;5099491;28;20032;-64
2021/12/11 14:41:50;;;;;;;0.70;0.50;;;;;;;;;;5096245;28;20028;-65
2021/12/11 14:44:21;;;;;;;0.60;0.40;;;;;;;;;;5102344;28;20479;-64
2021/12/11 14:46:51;;;;;;;1.52;0.40;;;;;;;;;;5096970;28;20028;-67
2021/12/11 14:49:18;;;;;;;0.20;0.20;;;;;;;;;;5096716;28;20391;-67
2021/12/11 14:51:44;;;;;;;0.68;0.40;;;;;;;;;;5097379;28;20032;-67
2021/12/11 14:54:13;;;;;;;0.82;0.40;;;;;;;;;;5097366;28;20142;-66
2021/12/11 14:56:40;;;;;;;1.67;0.75;;;;;;;;;;5093979;28;20024;-66
2021/12/11 14:59:12;;;;;;;1.90;0.63;;;;;;;;;;5094553;28;20024;-66
2021/12/11 15:01:40;;;;;;;2.17;0.90;;;;;;;;;;5093845;28;20494;-66
2021/12/11 15:04:06;;;;;;;;;;;;;;;;;;5097409;28;20027;-66
2021/12/11 15:06:32;;;;;;;1.55;0.68;;;;;;;;;;5096495;28;20011;-64
2021/12/11 15:08:58;;;;;;;1.23;0.52;;;;;;;;;;5095553;28;20030;-66
2021/12/11 15:11:27;;;;;;;0.95;0.50;;;;;;;;;;5093613;28;20035;-66
2021/12/11 15:13:56;;;;;;;1.50;0.52;;;;;;;;;;5096194;28;20564;-65
2021/12/11 15:16:22;;;;;;;0.60;0.47;;;;;;;;;;5096881;28;20028;-65
2021/12/11 15:18:49;;;;;;;1.50;0.65;;;;;;;;;;5097796;28;20420;-66
2021/12/11 15:21:18;;;;;;;0.10;0.10;;;;;;;;;;5096732;28;20513;-65
2021/12/11 15:23:45;;;;;;;0.93;0.50;;;;;;;;;;5093750;28;20032;-65
2021/12/11 15:26:11;;;;;;;1.55;0.60;;;;;;;;;;5094201;28;20450;-60
2021/12/11 15:28:38;;;;;;;2.40;0.63;;;;;;;;;;5096667;28;20020;-60
2021/12/11 15:31:06;;;;;;;2.08;0.85;;;;;;;;;;5096556;28;20032;-60
2021/12/11 15:33:33;;;;;;;1.38;0.60;;;;;;;;;;5096788;28;20066;-60
2021/12/11 15:36:01;;;;;;;0.85;0.50;;;;;;;;;;5096302;28;20055;-61
2021/12/11 15:38:27;;;;;;;0.98;0.70;;;;;;;;;;5092711;28;20131;-60
2021/12/11 15:40:53;;;;;;;0.32;0.20;;;;;;;;;;5093454;28;20103;-60
2021/12/11 15:43:20;;;;;;;1.20;0.45;;;;;;;;;;5095980;28;20084;-60
2021/12/11 15:45:50;;;;;;;1.00;0.50;;;;;;;;;;5093681;28;20026;-60
2021/12/11 15:48:16;;;;;;;0.45;0.20;;;;;;;;;;5100656;28;20036;-61
2021/12/11 15:50:42;;;;;;;0.70;0.35;;;;;;;;;;5090928;28;20076;-61
2021/12/11 15:53:08;;;;;;;0.52;0.25;;;;;;;;;;5094370;28;20085;-62
2021/12/11 15:55:39;;;;;;;1.17;0.80;;;;;;;;;;5099421;28;20020;-61
2021/12/11 15:58:05;;;;;;;0.50;0.35;;;;;;;;;;5101839;28;20148;-61
2021/12/11 16:00:33;;;;;;;0.10;0.10;;;;;;;;;;5102258;28;20032;-66
2021/12/11 16:02:59;;;;;;;0.90;0.52;;;;;;;;;;5099586;28;20035;-65
2021/12/11 16:05:25;;;;;;;0.20;0.20;;;;;;;;;;5096345;28;20122;-68
2021/12/11 16:07:52;;;;;;;0.20;0.20;;;;;;;;;;5109956;28;20051;-67
2021/12/11 16:10:19;;;;;;;1.23;0.47;;;;;;;;;;5100870;27;20379;-68
2021/12/11 16:12:46;;;;;;;2.00;0.82;;;;;;;;;;5106217;28;20092;-66
2021/12/11 16:15:15;;;;;;;1.33;0.63;;;;;;;;;;5109490;28;20087;-67
2021/12/11 16:17:41;;;;;;;1.85;0.65;;;;;;;;;;5097591;28;20120;-67
2021/12/11 16:20:09;;;;;;;0.65;0.35;;;;;;;;;;5094501;28;20031;-66
2021/12/11 16:22:39;;;;;;;0.80;0.60;;;;;;;;;;5105993;28;20429;-65
2021/12/11 16:25:12;;;;;;;1.27;0.20;;;;;;;;;;5101096;28;20020;-63
2021/12/11 16:27:39;;;;;;;0.80;0.40;;;;;;;;;;5099738;28;20040;-62
2021/12/11 16:30:06;;;;;;;0.52;0.20;;;;;;;;;;5096681;28;20016;-65
2021/12/11 16:32:34;;;;;;;1.50;0.50;;;;;;;;;;5078516;28;20044;-64
2021/12/11 16:35:01;;;;;;;0.65;0.45;;;;;;;;;;5109996;28;20893;-64
2021/12/11 16:37:32;;;;;;;0.98;0.60;;;;;;;;;;5099923;28;20386;-67
2021/12/11 16:40:00;;;;;;;1.90;1.08;;;;;;;;;;5099392;28;20042;-65
2021/12/11 16:42:40;;;;;;;0.98;0.43;;;;;;;;;;5099525;28;20110;-67
2021/12/11 16:45:07;;;;;;;0.30;0.30;;;;;;;;;;5098672;28;20057;-63
2021/12/11 16:47:33;;;;;;;3.17;1.20;;;;;;;;;;5093392;28;20057;-63
2021/12/11 16:50:00;;;;;;;1.15;0.77;;;;;;;;;;5106575;28;20449;-63
2021/12/11 16:52:26;;;;;;;0.28;0.15;;;;;;;;;;5099314;28;20028;-66
2021/12/11 16:54:53;;;;;;;0.75;0.50;;;;;;;;;;5099182;28;20382;-66
2021/12/11 16:57:19;;;;;;;1.75;1.05;;;;;;;;;;5099491;28;20031;-63
2021/12/11 16:59:46;;;;;;;0.30;0.20;;;;;;;;;;5096276;28;20504;-66
2021/12/11 17:02:13;;;;;;;1.25;0.70;;;;;;;;;;5096549;28;20080;-68
2021/12/11 17:04:40;;;;;;;2.97;1.35;;;;;;;;;;5108346;28;20077;-68
2021/12/11 17:07:08;;;;;;;0.98;0.50;;;;;;;;;;5101479;28;20464;-66
2021/12/11 17:09:36;;;;;;;0.70;0.60;;;;;;;;;;5099124;28;20084;-63
2021/12/11 17:12:03;;;;;;;1.20;0.57;;;;;;;;;;5099031;28;20016;-65
2021/12/11 17:14:29;;;;;;;1.40;0.68;;;;;;;;;;5095071;28;20020;-68
2021/12/11 17:16:55;;;;;;;0.13;0.10;;;;;;;;;;5097977;28;20437;-63
2021/12/11 17:19:21;;;;;;;1.48;0.40;;;;;;;;;;5098170;28;20067;-62
2021/12/11 17:21:47;;;;;;;1.63;0.40;;;;;;;;;;5099138;28;20028;-65
2021/12/11 17:24:15;;;;;;;0.25;0.10;;;;;;;;;;5099018;28;20016;-62
2021/12/11 17:26:41;;;;;;;0.88;0.50;;;;;;;;;;5097028;28;20442;-63
2021/12/11 17:29:09;;;;;;;0.73;0.40;;;;;;;;;;5102202;28;20024;-65
2021/12/11 17:31:35;;;;;;;0.35;0.28;;;;;;;;;;5098185;28;20386;-65
2021/12/11 17:34:01;;;;;;;2.05;0.60;;;;;;;;;;5097952;28;20052;-65
2021/12/11 17:36:27;;;;;;;0.30;0.28;;;;;;;;;;5099059;28;20101;-65
2021/12/11 17:38:54;;;;;;;0.82;0.40;;;;;;;;;;5097015;28;20420;-65
2021/12/11 17:41:21;;;;;;;0.70;0.40;;;;;;;;;;5094976;28;20024;-65
2021/12/11 17:43:47;;;;;;;1.27;0.75;;;;;;;;;;5094755;28;20024;-66
2021/12/11 17:46:16;;;;;;;0.45;0.32;;;;;;;;;;5097642;28;20032;-65
2021/12/11 17:48:42;;;;;;;0.45;0.30;;;;;;;;;;5095174;28;20126;-63
2021/12/11 17:51:08;;;;;;;1.10;0.38;;;;;;;;;;5098800;28;20020;-64
2021/12/11 17:53:35;;;;;;;0.55;0.30;;;;;;;;;;5102972;28;20368;-63
2021/12/11 17:56:02;;;;;;;1.77;0.45;;;;;;;;;;5100115;28;20012;-63
2021/12/11 17:58:35;;;;;;;0.80;0.40;;;;;;;;;;5099718;28;20017;-63
2021/12/11 18:01:01;;;;;;;0.98;0.30;;;;;;;;;;5102161;28;20080;-63
2021/12/11 18:03:29;;;;;;;0.30;0.30;;;;;;;;;;5102711;28;20182;-63
2021/12/11 18:05:56;;;;;;;;;;;;;;;;;;5103572;28;20015;-63
2021/12/11 18:08:25;;;;;;;0.43;0.22;;;;;;;;;;5101649;28;20080;-63
2021/12/11 18:11:17;;;;;;;0.47;0.38;;;;;;;;;;5102462;28;20191;-65
2021/12/11 18:13:48;;;;;;;0.73;0.47;;;;;;;;;;5097416;28;20060;-63
2021/12/11 18:16:22;;;;;;;5.32;2.00;;;;;;;;;;5099919;28;20036;-64
2021/12/11 18:18:50;;;;;;;2.45;0.30;;;;;;;;;;5105271;28;20072;-63
2021/12/11 18:21:22;;;;;;;3.33;1.10;;;;;;;;;;5098050;28;20379;-62
2021/12/11 18:23:48;;;;;;;3.88;1.10;;;;;;;;;;5108934;28;20099;-64
2021/12/11 18:26:16;;;;;;;0.40;0.30;;;;;;;;;;5094138;28;20509;-62
2021/12/11 18:28:43;;;;;;;0.93;0.57;;;;;;;;;;5093719;28;20032;-63
2021/12/11 18:31:11;;;;;;;1.08;0.73;;;;;;;;;;5097140;28;20019;-65
2021/12/11 18:33:38;;;;;;;0.30;0.30;;;;;;;;;;5097258;28;20024;-64
2021/12/11 18:36:12;;;;;;;3.13;1.20;;;;;;;;;;5097580;28;20066;-63
2021/12/11 18:38:40;;;;;;;2.08;0.88;;;;;;;;;;5093154;28;20032;-62
2021/12/11 18:41:12;;;;;;;0.40;0.30;;;;;;;;;;5092104;28;20032;-62
2021/12/11 18:43:39;;;;;;;0.08;0.08;;;;;;;;;;5095025;28;20032;-62
2021/12/11 18:46:06;;;;;;;0.55;0.47;;;;;;;;;;5094855;28;20440;-62
2021/12/11 18:48:33;;;;;;;2.42;1.00;;;;;;;;;;5096271;28;20032;-62
2021/12/11 18:51:21;;;;;;;1.00;0.57;;;;;;;;;;5096132;28;20019;-63
2021/12/11 18:53:49;;;;;;;0.00;0.00;;;;;;;;;;5093228;28;20578;-62
2021/12/11 18:56:15;;;;;;;0.30;0.10;;;;;;;;;;5094484;28;20478;-62
2021/12/11 18:58:44;;;;;;;0.35;0.15;;;;;;;;;;5096598;28;20046;-62
2021/12/11 19:01:13;;;;;;;1.30;0.50;;;;;;;;;;5093465;28;20467;-62
2021/12/11 19:03:41;;;;;;;0.10;0.10;;;;;;;;;;5097498;28;20107;-62
2021/12/11 19:06:09;;;;;;;0.50;0.30;;;;;;;;;;5096931;28;20059;-62
2021/12/11 19:08:35;;;;;;;1.35;0.20;;;;;;;;;;5092457;28;20047;-62
2021/12/11 19:11:05;;;;;;;0.73;0.47;;;;;;;;;;5096081;28;20048;-62
2021/12/11 19:13:31;;;;;;;0.40;0.22;;;;;;;;;;5094217;28;20056;-62
2021/12/11 19:15:59;;;;;;;1.27;0.40;;;;;;;;;;5097050;28;20066;-63
2021/12/11 19:18:25;;;;;;;;;;;;;;;;;;5096912;28;20059;-62
2021/12/11 19:20:57;;;;;;;2.63;1.17;;;;;;;;;;5095075;28;19962;-62
2021/12/11 19:23:24;;;;;;;1.73;0.40;;;;;;;;;;5094193;28;20042;-62
2021/12/11 19:25:50;;;;;;;0.57;0.45;;;;;;;;;;5096224;28;20052;-62
2021/12/11 19:28:20;;;;;;;0.93;0.45;;;;;;;;;;5097698;28;20395;-62
2021/12/11 19:30:49;;;;;;;1.52;0.60;;;;;;;;;;5100628;28;20016;-62
2021/12/11 19:33:16;;;;;;;2.60;0.93;;;;;;;;;;5100969;28;20033;-62
2021/12/11 19:35:44;;;;;;;1.17;0.50;;;;;;;;;;5098291;28;20024;-62
2021/12/11 19:38:11;;;;;;;2.22;0.98;;;;;;;;;;5098705;28;20028;-63
2021/12/11 19:40:39;;;;;;;5.60;2.00;;;;;;;;;;5097744;28;20016;-62
2021/12/11 19:43:06;;;;;;;1.90;0.60;;;;;;;;;;5100261;28;20096;-63
2021/12/11 19:45:32;;;;;;;3.88;1.70;;;;;;;;;;5100744;28;20027;-63
2021/12/11 19:47:58;;;;;;;2.97;0.95;;;;;;;;;;5099931;28;20106;-62
2021/12/11 19:50:25;;;;;;;0.75;0.50;;;;;;;;;;5096848;28;20032;-62
2021/12/11 19:52:51;;;;;;;2.45;1.05;;;;;;;;;;5099624;28;20020;-62
2021/12/11 19:55:19;;;;;;;2.58;0.90;;;;;;;;;;5100881;28;20064;-62
2021/12/11 19:57:46;;;;;;;;;;;;;;;;;;5101149;28;20033;-62
2021/12/11 20:00:28;;;;;;;0.60;0.25;;;;;;;;;;5100398;28;19912;-62
2021/12/11 20:02:56;;;;;;;2.85;1.30;;;;;;;;;;5099010;28;20411;-63
2021/12/11 20:05:24;;;;;;;1.60;0.95;;;;;;;;;;5097044;28;20103;-62
2021/12/11 20:07:54;;;;;;;4.60;1.77;;;;;;;;;;5099230;28;20051;-62
2021/12/11 20:10:23;;;;;;;3.55;1.30;;;;;;;;;;5100152;28;20020;-63
2021/12/11 20:12:59;;;;;;;1.02;0.38;;;;;;;;;;5099625;28;20020;-62
2021/12/11 20:15:25;;;;;;;1.98;0.90;;;;;;;;;;5100494;28;20081;-62
2021/12/11 20:17:51;;;;;;;6.95;2.08;;;;;;;;;;5097042;28;20028;-63
2021/12/11 20:20:20;;;;;;;5.05;1.60;;;;;;;;;;5095266;28;20066;-62
2021/12/11 20:22:46;;;;;;;2.83;0.60;;;;;;;;;;5099403;28;20063;-62
2021/12/11 20:25:12;;;;;;;5.45;1.90;;;;;;;;;;5100105;28;20474;-62
2021/12/11 20:27:41;;;;;;;1.70;0.70;;;;;;;;;;5099663;28;20491;-63
2021/12/11 20:30:07;;;;;;;1.30;0.30;;;;;;;;;;5100360;28;20051;-62
2021/12/11 20:32:33;;;;;;;2.85;0.80;;;;;;;;;;5095560;28;20107;-63
2021/12/11 20:35:00;;;;;;;2.10;0.80;;;;;;;;;;5099221;28;20099;-62
2021/12/11 20:37:29;;;;;;;0.47;0.32;;;;;;;;;;5100120;28;20360;-62
2021/12/11 20:39:55;;;;;;;0.65;0.20;;;;;;;;;;5098990;28;20028;-62
2021/12/11 20:42:25;;;;;;;2.83;0.98;;;;;;;;;;5098849;28;20501;-62
2021/12/11 20:44:53;;;;;;;5.43;2.20;;;;;;;;;;5097864;28;20016;-62
2021/12/11 20:47:21;;;;;;;5.93;2.55;;;;;;;;;;5102658;28;20032;-62
2021/12/11 20:49:49;;;;;;;1.20;0.47;;;;;;;;;;5099856;28;20027;-62
2021/12/11 20:52:16;;;;;;;0.50;0.20;;;;;;;;;;5101548;28;20063;-62
2021/12/11 20:54:50;;;;;;;10.45;3.92;;;;;;;;;;5099183;28;20019;-62
2021/12/11 20:57:16;;;;;;;0.95;0.38;;;;;;;;;;5096579;28;20039;-61
2021/12/11 20:59:43;;;;;;;1.25;0.63;;;;;;;;;;5100665;28;20055;-62
2021/12/11 21:02:11;;;;;;;2.45;0.95;;;;;;;;;;5099776;28;20035;-62
2021/12/11 21:04:44;;;;;;;9.38;3.03;;;;;;;;;;5103898;28;20173;-63
2021/12/11 21:07:12;;;;;;;1.88;0.70;;;;;;;;;;5104590;28;20452;-62
2021/12/11 21:09:40;;;;;;;1.83;0.93;;;;;;;;;;5100301;28;20622;-62
2021/12/11 21:12:12;;;;;;;0.90;0.40;;;;;;;;;;5100614;28;20023;-62
2021/12/11 21:14:38;;;;;;;1.88;0.77;;;;;;;;;;5104157;27;20047;-62
2021/12/11 21:17:08;;;;;;;3.17;1.00;;;;;;;;;;5097872;28;20031;-62
2021/12/11 21:19:37;;;;;;;1.35;0.65;;;;;;;;;;5100472;28;20086;-62
2021/12/11 21:22:09;;;;;;;0.80;0.40;;;;;;;;;;5103267;28;20020;-62
2021/12/11 21:24:37;;;;;;;3.95;1.40;;;;;;;;;;5101236;28;20062;-61
2021/12/11 21:27:07;;;;;;;1.05;0.40;;;;;;;;;;5102415;28;20034;-61
2021/12/11 21:29:33;;;;;;;7.53;2.10;;;;;;;;;;5106490;28;20023;-62
2021/12/11 21:32:03;;;;;;;2.22;1.13;;;;;;;;;;5096736;28;20046;-62
2021/12/11 21:34:30;;;;;;;2.30;1.15;;;;;;;;;;5096219;28;20073;-62
2021/12/11 21:37:01;;;;;;;2.30;0.63;;;;;;;;;;5101304;28;20027;-62
2021/12/11 21:39:29;;;;;;;1.83;1.20;;;;;;;;;;5095242;28;20024;-62
2021/12/11 21:41:57;;;;;;;12.07;4.40;;;;;;;;;;5097763;28;20441;-62
2021/12/11 21:44:24;;;;;;;3.10;1.10;;;;;;;;;;5100779;28;25116;-62
2021/12/11 21:46:53;;;;;;;3.78;1.73;;;;;;;;;;5098126;28;20143;-62
2021/12/11 21:49:25;;;;;;;4.05;1.75;;;;;;;;;;5103576;28;20020;-62
2021/12/11 21:51:53;;;;;;;4.32;1.70;;;;;;;;;;5097677;28;20055;-62
2021/12/11 21:54:21;;;;;;;1.48;0.57;;;;;;;;;;5098658;28;20058;-62
2021/12/11 21:56:47;;;;;;;3.13;1.85;;;;;;;;;;5103797;28;20062;-62
2021/12/11 21:59:17;;;;;;;2.53;0.95;;;;;;;;;;5093180;28;20088;-62
2021/12/11 22:01:45;;;;;;;4.18;1.52;;;;;;;;;;5109795;28;20020;-62
2021/12/11 22:04:15;;;;;;;5.97;2.20;;;;;;;;;;5100023;28;20488;-62
2021/12/11 22:06:43;;;;;;;1.05;0.50;;;;;;;;;;5097937;28;20040;-62
2021/12/11 22:09:13;;;;;;;1.13;0.40;;;;;;;;;;5097688;28;20099;-62
2021/12/11 22:11:40;;;;;;;4.35;1.55;;;;;;;;;;5094298;28;20107;-62
2021/12/11 22:14:07;;;;;;;2.20;0.82;;;;;;;;;;5111539;28;20113;-62
2021/12/11 22:16:36;;;;;;;2.05;0.47;;;;;;;;;;5097778;28;20020;-61
2021/12/11 22:19:03;;;;;;;2.63;1.17;;;;;;;;;;5096972;28;20035;-61
2021/12/11 22:21:30;;;;;;;5.47;1.73;;;;;;;;;;5098038;28;20024;-61
2021/12/11 22:23:57;;;;;;;2.25;0.80;;;;;;;;;;5096166;28;20164;-62
2021/12/11 22:26:29;;;;;;;3.25;0.88;;;;;;;;;;5094212;28;20089;-63
2021/12/11 22:28:57;;;;;;;4.13;1.10;;;;;;;;;;5096582;28;20032;-62
2021/12/11 22:31:25;;;;;;;;;;;;;;;;;;5098191;28;20073;-62
2021/12/11 22:33:51;;;;;;;3.85;0.68;;;;;;;;;;5097840;28;20294;-62
2021/12/11 22:36:17;;;;;;;2.55;0.70;;;;;;;;;;5096639;28;20084;-62
2021/12/11 22:38:44;;;;;;;0.20;0.20;;;;;;;;;;5093495;28;20386;-62
2021/12/11 22:41:10;;;;;;;0.75;0.20;;;;;;;;;;5094287;28;20130;-63
2021/12/11 22:43:40;;;;;;;0.47;0.20;;;;;;;;;;5097494;28;20445;-62
2021/12/11 22:46:07;;;;;;;2.42;0.60;;;;;;;;;;5096660;28;20016;-62
2021/12/11 22:48:33;;;;;;;0.22;0.20;;;;;;;;;;5096988;28;20483;-62
2021/12/11 22:51:02;;;;;;;0.22;0.17;;;;;;;;;;5106845;28;20115;-62
2021/12/11 22:53:30;;;;;;;1.45;0.50;;;;;;;;;;5093069;28;20019;-62
2021/12/11 22:55:57;;;;;;;1.40;0.50;;;;;;;;;;5091882;28;20107;-62
2021/12/11 22:58:28;;;;;;;0.45;0.22;;;;;;;;;;5096614;28;20074;-62
2021/12/11 23:01:08;;;;;;;0.73;0.25;;;;;;;;;;5093705;28;20111;-62
2021/12/11 23:03:36;;;;;;;1.05;0.50;;;;;;;;;;5096188;28;20032;-62
2021/12/11 23:06:03;;;;;;;0.40;0.20;;;;;;;;;;5096603;28;20040;-62
2021/12/11 23:08:30;;;;;;;1.00;0.40;;;;;;;;;;5092096;28;20051;-61
2021/12/11 23:10:59;;;;;;;1.17;0.22;;;;;;;;;;5109322;28;20398;-61
2021/12/11 23:13:27;;;;;;;0.65;0.45;;;;;;;;;;5096759;28;20032;-61
2021/12/11 23:15:58;;;;;;;0.77;0.30;;;;;;;;;;5096512;28;20031;-61
2021/12/11 23:18:39;;;;;;;0.57;0.30;;;;;;;;;;5096199;28;20105;-61
2021/12/11 23:21:10;;;;;;;1.60;0.70;;;;;;;;;;5095409;28;20023;-61
2021/12/11 23:23:43;;;;;;;2.70;0.90;;;;;;;;;;5093083;28;20117;-61
2021/12/11 23:26:15;;;;;;;5.07;1.27;;;;;;;;;;5094768;28;20067;-61
2021/12/11 23:28:41;;;;;;;3.80;1.00;;;;;;;;;;5093050;28;20040;-61
2021/12/11 23:31:13;;;;;;;3.85;1.17;;;;;;;;;;5096060;28;20328;-61
2021/12/11 23:33:54;;;;;;;5.07;1.45;;;;;;;;;;5093593;28;20020;-61
2021/12/11 23:36:25;;;;;;;2.55;0.73;;;;;;;;;;5095688;28;20041;-61
2021/12/11 23:38:58;;;;;;;1.35;0.70;;;;;;;;;;5094002;28;20399;-61
2021/12/11 23:41:27;;;;;;;1.67;0.47;;;;;;;;;;5092750;28;20031;-61
2021/12/11 23:43:59;;;;;;;1.23;0.60;;;;;;;;;;5096155;28;20540;-61
2021/12/11 23:46:25;;;;;;;3.40;1.02;;;;;;;;;;5096964;28;20068;-61
2021/12/11 23:48:53;;;;;;;1.50;0.55;;;;;;;;;;5096495;28;20039;-61
2021/12/11 23:51:19;;;;;;;;;;;;;;;;;;5097430;28;20165;-61
2021/12/11 23:53:53;;;;;;;1.75;0.75;;;;;;;;;;5094230;28;20359;-61
2021/12/11 23:56:20;;;;;;;1.63;0.50;;;;;;;;;;5094382;28;20119;-61
2021/12/11 23:58:50;;;;;;;0.77;0.40;;;;;;;;;;5095965;28;20482;-61
